createdAt,value
2022-12-18T00:03:28.314Z,33.88
2022-12-18T00:08:30.807Z,61.40
2022-12-18T00:13:33.309Z,34.17
2022-12-18T00:18:36.143Z,49.90
2022-12-18T00:23:40.712Z,34.45
2022-12-18T00:28:44.807Z,30.15
2022-12-18T00:33:47.689Z,36.20
2022-12-18T00:38:52.790Z,28.42
2022-12-18T00:43:55.144Z,34.92
2022-12-18T00:48:57.673Z,39.60
2022-12-18T00:54:00.243Z,36.15
2022-12-18T00:59:02.685Z,31.42
2022-12-18T01:04:06.710Z,33.85
2022-12-18T01:09:09.160Z,31.67
2022-12-18T01:14:12.779Z,39.42
2022-12-18T01:19:15.282Z,31.55
2022-12-18T01:24:17.660Z,39.05
2022-12-18T01:29:20.115Z,33.83
2022-12-18T01:34:22.862Z,39.08
2022-12-18T01:39:25.405Z,35.10
2022-12-18T01:44:49.682Z,36.13
2022-12-18T01:49:52.757Z,47.10
2022-12-18T01:54:56.823Z,38.90
2022-12-18T02:00:03.406Z,28.80
2022-12-18T02:05:20.119Z,29.75
2022-12-18T02:10:29.082Z,30.40
2022-12-18T02:15:51.717Z,29.27
2022-12-18T02:21:32.674Z,33.75
2022-12-18T02:26:45.859Z,29.20
2022-12-18T02:32:00.758Z,32.78
2022-12-18T02:37:07.052Z,44.70
2022-12-18T02:42:11.397Z,32.80
2022-12-18T02:47:16.147Z,36.53
2022-12-18T02:52:27.736Z,42.80
2022-12-18T02:57:45.738Z,36.97
2022-12-18T03:03:13.550Z,32.15
2022-12-18T03:08:23.017Z,28.88
2022-12-18T03:13:41.472Z,36.40
2022-12-18T03:19:00.187Z,36.80
2022-12-18T03:24:07.351Z,33.20
2022-12-18T03:29:16.301Z,39.67
2022-12-18T03:34:25.051Z,35.17
2022-12-18T03:39:27.663Z,35.08
2022-12-18T03:44:45.299Z,34.58
2022-12-18T03:50:24.342Z,36.22
2022-12-18T03:55:31.812Z,36.00
2022-12-18T04:00:39.270Z,37.95
2022-12-18T04:05:47.007Z,35.55
2022-12-18T04:10:51.048Z,34.08
2022-12-18T04:15:54.616Z,33.97
2022-12-18T04:20:58.041Z,33.10
2022-12-18T04:26:01.290Z,34.88
2022-12-18T04:31:27.485Z,35.05
2022-12-18T04:36:30.248Z,35.08
2022-12-18T04:41:32.633Z,42.33
2022-12-18T04:46:38.802Z,37.38
2022-12-18T04:51:41.454Z,37.78
2022-12-18T04:56:43.908Z,34.65
2022-12-18T05:01:47.247Z,29.23
2022-12-18T05:06:49.862Z,33.10
2022-12-18T05:11:52.334Z,36.95
2022-12-18T05:16:57.962Z,31.65
2022-12-18T05:22:03.356Z,33.90
2022-12-18T05:27:05.830Z,35.97
2022-12-18T05:32:08.198Z,32.95
2022-12-18T05:37:10.664Z,29.38
2022-12-18T05:42:13.122Z,31.63
2022-12-18T05:47:15.714Z,36.28
2022-12-18T05:52:18.223Z,36.38
2022-12-18T05:57:20.701Z,37.95
2022-12-18T06:02:23.351Z,37.75
2022-12-18T06:07:25.861Z,34.97
2022-12-18T06:12:28.342Z,49.13
2022-12-18T06:17:31.856Z,40.35
2022-12-18T06:22:34.783Z,40.72
2022-12-18T06:27:37.151Z,44.47
2022-12-18T06:32:39.569Z,49.22
2022-12-18T06:37:42.006Z,43.13
2022-12-18T06:42:44.455Z,52.05
2022-12-18T06:47:46.925Z,46.10
2022-12-18T06:52:49.324Z,47.97
2022-12-18T06:57:51.866Z,40.45
2022-12-18T07:02:54.349Z,50.67
2022-12-18T07:07:57.095Z,50.85
2022-12-18T07:12:59.501Z,38.00
2022-12-18T07:18:01.954Z,40.20
2022-12-18T07:23:06.483Z,32.83
2022-12-18T07:28:12.847Z,36.60
2022-12-18T07:33:19.578Z,32.40
2022-12-18T07:38:22.156Z,30.27
2022-12-18T07:43:24.572Z,26.25
2022-12-18T07:48:27.044Z,27.80
2022-12-18T07:53:29.665Z,30.30
2022-12-18T07:58:32.774Z,41.92
2022-12-18T08:03:35.767Z,28.35
2022-12-18T08:08:38.510Z,33.67
2022-12-18T08:13:41.219Z,31.45
2022-12-18T08:18:44.067Z,35.97
2022-12-18T08:23:46.757Z,34.35
2022-12-18T08:28:50.468Z,46.25
2022-12-18T08:33:54.126Z,27.25
2022-12-18T08:38:58.383Z,36.75
2022-12-18T08:44:19.704Z,37.22
2022-12-18T08:49:22.116Z,30.50
2022-12-18T08:54:26.068Z,38.95
2022-12-18T08:59:31.464Z,35.08
2022-12-18T09:04:33.979Z,31.60
2022-12-18T09:09:37.146Z,31.80
2022-12-18T09:14:39.621Z,29.95
2022-12-18T09:19:42.137Z,32.88
2022-12-18T09:24:45.038Z,35.92
2022-12-18T09:29:47.840Z,30.77
2022-12-18T09:34:50.691Z,34.08
2022-12-18T09:39:53.085Z,34.33
2022-12-18T09:44:56.000Z,32.17
2022-12-18T09:50:03.186Z,32.35
2022-12-18T09:55:24.046Z,40.13
2022-12-18T10:00:27.061Z,41.35
2022-12-18T10:05:40.234Z,40.22
2022-12-18T10:10:54.312Z,50.63
2022-12-18T10:16:26.731Z,37.10
2022-12-18T10:21:35.195Z,37.92
2022-12-18T10:26:37.774Z,39.38
2022-12-18T10:31:40.688Z,44.60
2022-12-18T10:36:43.740Z,41.08
2022-12-18T10:41:46.581Z,44.33
2022-12-18T10:47:10.073Z,41.35
2022-12-18T10:52:19.389Z,42.28
2022-12-18T10:57:36.901Z,36.15
2022-12-18T11:02:40.338Z,37.03
2022-12-18T11:07:51.531Z,36.85
2022-12-18T11:12:54.009Z,40.95
2022-12-18T11:17:56.854Z,35.10
2022-12-18T11:23:05.854Z,33.97
2022-12-18T11:28:28.284Z,39.95
2022-12-18T11:33:31.080Z,34.17
2022-12-18T11:38:44.126Z,32.83
2022-12-18T11:44:00.323Z,48.13
2022-12-18T11:49:29.843Z,34.97
2022-12-18T11:54:32.721Z,42.97
2022-12-18T11:59:50.136Z,39.00
2022-12-18T12:05:21.178Z,36.13
2022-12-18T12:10:29.722Z,36.92
2022-12-18T12:15:52.540Z,34.42
2022-12-18T12:20:55.032Z,34.13
2022-12-18T12:26:20.539Z,40.13
2022-12-18T12:31:35.446Z,71.63
2022-12-18T12:37:13.192Z,50.17
2022-12-18T12:43:06.102Z,58.65
2022-12-18T12:48:18.906Z,53.25
2022-12-18T12:53:36.843Z,52.97
2022-12-18T12:59:20.598Z,61.50
2022-12-18T13:04:42.535Z,71.72
2022-12-18T13:10:12.772Z,61.30
2022-12-18T13:15:46.231Z,80.32
2022-12-18T13:21:03.162Z,92.95
2022-12-18T13:26:07.261Z,93.45
2022-12-18T13:31:09.620Z,70.88
2022-12-18T13:36:24.409Z,71.40
2022-12-18T13:41:29.521Z,82.22
2022-12-18T13:46:43.688Z,61.88
2022-12-18T13:51:51.109Z,77.60
2022-12-18T13:56:55.252Z,52.28
2022-12-18T14:02:00.325Z,78.50
2022-12-18T14:07:18.321Z,63.38
2022-12-18T14:12:45.859Z,58.88
2022-12-18T14:17:52.364Z,58.75
2022-12-18T14:22:59.092Z,52.85
2022-12-18T14:28:08.685Z,53.58
2022-12-18T14:33:15.589Z,44.13
2022-12-18T14:38:21.516Z,44.03
2022-12-18T14:43:24.274Z,45.30
2022-12-18T14:48:40.034Z,39.63
2022-12-18T14:53:52.101Z,43.10
2022-12-18T14:59:03.517Z,41.40
2022-12-18T15:04:24.770Z,50.28
2022-12-18T15:09:27.639Z,44.22
2022-12-18T15:14:42.896Z,45.60
2022-12-18T15:19:47.278Z,39.95
2022-12-18T15:24:50.244Z,45.40
2022-12-18T15:30:17.446Z,49.30
2022-12-18T15:35:25.269Z,49.85
2022-12-18T15:40:27.789Z,49.33
2022-12-18T15:45:30.575Z,47.13
2022-12-18T15:50:35.916Z,47.30
2022-12-18T15:56:01.026Z,50.53
2022-12-18T16:01:03.994Z,43.83
2022-12-18T16:06:06.713Z,45.30
2022-12-18T16:11:41.902Z,44.50
2022-12-18T16:16:44.779Z,45.75
2022-12-18T16:21:48.801Z,54.20
2022-12-18T16:26:55.310Z,49.08
2022-12-18T16:31:59.294Z,49.08
2022-12-18T16:37:06.064Z,56.35
2022-12-18T16:42:20.802Z,58.35
2022-12-18T16:47:23.437Z,55.88
2022-12-18T16:52:26.340Z,51.50
2022-12-18T16:57:28.856Z,54.53
2022-12-18T17:02:31.478Z,56.00
2022-12-18T17:07:36.346Z,48.83
2022-12-18T17:12:39.303Z,45.55
2022-12-18T17:17:41.752Z,45.83
2022-12-18T17:22:44.195Z,51.33
2022-12-18T17:27:46.661Z,50.65
2022-12-18T17:32:49.094Z,49.78
2022-12-18T17:37:51.615Z,48.45
2022-12-18T17:42:54.131Z,52.97
2022-12-18T17:47:59.991Z,48.17
2022-12-18T17:53:03.288Z,48.05
2022-12-18T17:58:05.734Z,47.78
2022-12-18T18:03:08.872Z,43.53
2022-12-18T18:08:11.457Z,43.95
2022-12-18T18:13:51.988Z,44.70
2022-12-18T18:18:57.863Z,42.63
2022-12-18T18:24:05.307Z,38.80
2022-12-18T18:29:15.162Z,37.72
2022-12-18T18:34:25.276Z,37.13
2022-12-18T18:39:28.327Z,35.53
2022-12-18T18:44:30.954Z,39.67
2022-12-18T18:49:33.462Z,40.97
2022-12-18T18:54:35.983Z,42.03
2022-12-18T18:59:38.712Z,38.40
2022-12-18T19:04:46.084Z,39.47
2022-12-18T19:09:52.630Z,48.90
2022-12-18T19:14:55.404Z,94.80
2022-12-18T19:19:57.842Z,54.65
2022-12-18T19:25:00.383Z,118.25
2022-12-18T19:30:02.768Z,86.15
2022-12-18T19:35:06.260Z,55.10
2022-12-18T19:40:12.444Z,64.93
2022-12-18T19:45:15.722Z,162.50
2022-12-18T19:50:18.380Z,56.53
2022-12-18T19:55:20.965Z,289.52
2022-12-18T20:00:23.990Z,126.88
2022-12-18T20:05:26.399Z,38.55
2022-12-18T20:10:28.858Z,36.63
2022-12-18T20:15:31.298Z,21.88
2022-12-18T20:20:33.770Z,19.40
2022-12-18T20:25:38.785Z,17.40
2022-12-18T20:30:41.810Z,18.77
2022-12-18T20:35:44.238Z,18.70
2022-12-18T20:40:47.484Z,17.48
2022-12-18T20:45:49.988Z,18.83
2022-12-18T20:51:04.233Z,16.52
2022-12-18T20:56:17.798Z,17.85
2022-12-18T21:01:25.554Z,16.23
2022-12-18T21:06:28.149Z,17.63
2022-12-18T21:11:52.882Z,16.90
2022-12-18T21:16:56.079Z,17.55
2022-12-18T21:21:58.820Z,17.98
2022-12-18T21:27:02.132Z,16.90
2022-12-18T21:32:05.833Z,12.40
2022-12-18T21:37:08.245Z,12.45
2022-12-18T21:42:30.954Z,13.05
2022-12-18T21:47:33.474Z,12.13
2022-12-18T21:52:35.867Z,10.20
2022-12-18T21:57:39.509Z,8.70
2022-12-18T22:02:42.324Z,9.18
2022-12-18T22:07:44.889Z,8.52
2022-12-18T22:12:48.625Z,10.05
2022-12-18T22:17:53.446Z,5.85
2022-12-18T22:23:06.263Z,6.50
2022-12-18T22:28:27.678Z,7.03
2022-12-18T22:33:30.061Z,5.57
2022-12-18T22:38:32.495Z,6.68
2022-12-18T22:43:34.974Z,6.97
2022-12-18T22:48:37.333Z,6.72
2022-12-18T22:53:39.804Z,5.13
2022-12-18T22:58:48.701Z,5.70
2022-12-18T23:03:52.275Z,4.80
2022-12-18T23:08:58.381Z,4.22
2022-12-18T23:14:00.801Z,3.00
2022-12-18T23:19:04.369Z,3.53
2022-12-18T23:24:07.241Z,3.50
2022-12-18T23:29:09.937Z,3.20
2022-12-18T23:34:14.054Z,4.18
2022-12-18T23:39:29.092Z,5.00
2022-12-18T23:44:32.438Z,3.90
2022-12-18T23:49:34.856Z,3.90
2022-12-18T23:54:38.212Z,4.25
2022-12-18T23:59:40.763Z,3.58
